Lancaster, Ohio
Current Conditions -  °F | °C
As of 4:53 PM on Friday 19 Dec 2014 (Local Time) from KLHQ Reporting Station
Overcast Overcast  
Wind Chill: 33°   Ceiling: 1800
Heat Index: 33°   Visibility: 8mi
Dew Point: 23°   Wind: 3mph
Humidity: 66%   Direction: 360°N
Pressure: 30.26"   Gusts: NA
Location:  39.71°N, 82.6°W
Report Text: KLHQ 192153Z AUTO 36003KT 8SM OVC018 01/M05 A3026 RMK AO2 SLP257 T00061050
Loading
Personal Weather Stations






























Interactive Weather Map New forecast layout! Learn more

10-Day Weather Forecast

Advertisements
Track Severe Weather on mobile